Time;durP1;ratioP1;P1;durP2;ratioP2;P2;SDS_P1;SDS_P2;PMS_P1;PMS_P2;Temp;Humidity;BMP_temperature;BMP_pressure;BME280_temperature;BME280_humidity;BME280_pressure;Samples;Min_cycle;Max_cycle;Signal;HPM_P1;HPM_P2
2022/06/24 00:00:06;;;;;;;2.87;1.40;;;;;;;20.59;100.00;100836.50;4991183;28;20485;-74
2022/06/24 00:02:32;;;;;;;1.97;1.87;;;;;;;20.58;100.00;100826.69;4994774;28;20444;-75
2022/06/24 00:05:00;;;;;;;2.23;1.97;;;;;;;20.10;100.00;100749.63;4995085;28;20441;-75
2022/06/24 00:07:26;;;;;;;2.00;1.90;;;;;;;20.66;100.00;100831.66;4993808;28;20220;-75
2022/06/24 00:09:51;;;;;;;2.77;2.03;;;;;;;20.56;100.00;100817.97;4995652;28;20456;-75
2022/06/24 00:12:19;;;;;;;3.33;2.00;;;;;;;20.56;100.00;100822.59;4995052;28;20215;-75
2022/06/24 00:14:56;;;;;;;2.97;1.97;;;;;;;20.55;100.00;100824.50;4995445;28;20192;-75
2022/06/24 00:17:27;;;;;;;1.83;1.73;;;;;;;20.20;100.00;100771.47;4994787;28;20463;-75
2022/06/24 00:19:52;;;;;;;2.37;1.77;;;;;;;20.58;100.00;100813.06;4994764;28;20428;-74
2022/06/24 00:22:18;;;;;;;2.47;2.00;;;;;;;20.52;100.00;100822.28;4991609;28;21012;-75
2022/06/24 00:24:44;;;;;;;3.33;1.90;;;;;;;20.53;100.00;100808.41;4996511;28;20193;-75
2022/06/24 00:27:36;;;;;;;1.80;1.70;;;;;;;20.42;100.00;100808.59;4990681;28;20291;-75
2022/06/24 00:30:16;;;;;;;2.10;1.93;;;;;;;20.37;100.00;100800.44;4995432;28;20221;-75
2022/06/24 00:32:43;;;;;;;3.03;1.73;;;;;;;20.41;100.00;100802.34;4993173;28;20992;-75
2022/06/24 00:35:12;;;;;;;2.00;1.83;;;;;;;20.40;100.00;100799.91;4995141;28;20924;-75
2022/06/24 00:37:39;;;;;;;1.83;1.70;;;;;;;20.35;100.00;100792.50;4999373;28;20467;-75
2022/06/24 00:40:10;;;;;;;2.80;1.90;;;;;;;20.33;100.00;100800.13;4995916;28;20448;-76
2022/06/24 00:42:41;;;;;;;3.00;1.80;;;;;;;20.27;100.00;100793.81;4992844;28;20491;-75
2022/06/24 00:45:31;;;;;;;2.57;1.80;;;;;;;20.28;100.00;100791.94;4993644;28;20455;-75
2022/06/24 00:47:57;;;;;;;2.23;1.67;;;;;;;20.31;100.00;100786.78;4994114;28;20451;-75
2022/06/24 00:50:25;;;;;;;2.33;2.13;;;;;;;20.01;100.00;100756.66;4995951;28;20478;-75
2022/06/24 00:53:00;;;;;;;2.23;2.03;;;;;;;20.21;100.00;100784.00;4998053;28;20441;-74
2022/06/24 00:55:28;;;;;;;3.53;2.13;;;;;;;19.97;100.00;100744.66;4995533;28;20842;-75
2022/06/24 00:57:54;;;;;;;2.57;1.77;;;;;;;20.14;100.00;100782.59;4994435;28;20497;-75
2022/06/24 01:00:24;;;;;;;2.03;1.83;;;;;;;20.20;100.00;100770.66;4993541;28;20934;-75
2022/06/24 01:02:49;;;;;;;3.00;1.80;;;;;;;20.14;100.00;100772.53;4996319;28;20585;-75
2022/06/24 01:05:17;;;;;;;2.37;2.00;;;;;;;20.01;100.00;100757.47;4993409;28;21031;-75
2022/06/24 01:07:42;;;;;;;2.20;1.97;;;;;;;19.95;100.00;100766.69;4994679;28;20942;-75
2022/06/24 01:10:09;;;;;;;2.40;1.97;;;;;;;20.05;100.00;100758.59;4992878;28;20475;-75
2022/06/24 01:12:35;;;;;;;1.73;1.63;;;;;;;20.07;100.00;100761.84;4994222;28;20185;-75
2022/06/24 01:15:03;;;;;;;2.37;1.67;;;;;;;20.01;100.00;100754.75;4989955;28;20452;-75
2022/06/24 01:17:29;;;;;;;2.03;1.60;;;;;;;20.03;100.00;100759.94;4995704;28;21035;-75
2022/06/24 01:19:54;;;;;;;2.10;2.00;;;;;;;20.02;100.00;100761.03;4999112;28;20531;-76
2022/06/24 01:22:24;;;;;;;1.70;1.60;;;;;;;19.94;100.00;100761.53;4991661;28;20204;-75
2022/06/24 01:24:49;;;;;;;2.70;2.33;;;;;;;19.92;100.00;100750.06;4996246;28;20196;-75
2022/06/24 01:27:15;;;;;;;3.43;2.20;;;;;;;19.90;100.00;100752.22;4997428;28;20511;-75
2022/06/24 01:29:41;;;;;;;4.07;2.70;;;;;;;19.61;100.00;100711.72;5002520;28;20256;-75
2022/06/24 01:32:07;;;;;;;3.07;2.13;;;;;;;19.85;100.00;100739.41;4995389;28;20479;-75
2022/06/24 01:34:32;;;;;;;3.07;2.30;;;;;;;19.76;100.00;100727.38;5001155;28;20189;-75
2022/06/24 01:36:58;;;;;;;3.33;2.53;;;;;;;19.77;100.00;100735.28;4997697;28;20216;-76
2022/06/24 01:39:23;;;;;;;2.80;2.20;;;;;;;19.72;100.00;100742.59;4998120;28;20300;-76
2022/06/24 01:41:50;;;;;;;3.13;2.17;;;;;;;19.70;100.00;100731.97;4996981;28;20243;-75
2022/06/24 01:44:16;;;;;;;2.60;2.27;;;;;;;19.56;100.00;100709.81;4997497;28;20195;-76
2022/06/24 01:46:41;;;;;;;2.40;2.20;;;;;;;19.61;100.00;100717.19;5001512;28;20467;-75
2022/06/24 01:49:07;;;;;;;2.43;2.23;;;;;;;19.00;100.00;100625.09;4999881;28;20193;-76
2022/06/24 01:51:36;;;;;;;2.60;2.40;;;;;;;19.18;100.00;100641.00;5000988;28;20666;-76
2022/06/24 01:54:01;;;;;;;2.83;2.53;;;;;;;19.43;100.00;100683.88;4997298;28;20649;-75
2022/06/24 01:56:27;;;;;;;3.10;2.33;;;;;;;19.50;100.00;100702.69;4995554;28;20563;-75
2022/06/24 01:58:52;;;;;;;2.30;2.10;;;;;;;19.56;100.00;100695.41;4998497;28;20223;-75
2022/06/24 02:01:18;;;;;;;2.57;2.33;;;;;;;19.37;100.00;100659.63;4992887;28;20189;-75
2022/06/24 02:03:43;;;;;;;3.90;2.30;;;;;;;19.59;100.00;100690.25;4996733;28;20716;-76
2022/06/24 02:06:10;;;;;;;3.30;2.60;;;;;;;19.52;100.00;100683.38;4997712;28;20213;-75
2022/06/24 02:08:36;;;;;;;2.80;1.90;;;;;;;19.29;100.00;100641.06;5001709;28;20190;-75
2022/06/24 02:13:47;;;;;;;4.37;2.60;;;;;;;19.57;100.00;100672.53;5003126;28;20219;-75
2022/06/24 02:16:13;;;;;;;2.50;2.23;;;;;;;19.54;100.00;100665.72;4999988;28;20899;-76
2022/06/24 02:18:39;;;;;;;2.93;2.63;;;;;;;19.52;100.00;100661.63;5001691;28;20452;-75
2022/06/24 02:21:05;;;;;;;3.43;3.13;;;;;;;19.49;100.00;100662.97;5000618;28;20499;-75
2022/06/24 02:23:31;;;;;;;3.20;2.40;;;;;;;19.55;100.00;100664.63;5002955;28;20190;-76
2022/06/24 02:25:57;;;;;;;3.03;2.53;;;;;;;19.42;100.00;100632.47;4999858;28;20455;-76
2022/06/24 02:28:23;;;;;;;4.40;3.00;;;;;;;19.55;100.00;100651.03;5016541;28;20591;-75
2022/06/24 02:30:53;;;;;;;3.53;2.40;;;;;;;19.56;100.00;100657.31;4997110;28;20764;-76
2022/06/24 02:33:18;;;;;;;2.80;2.40;;;;;;;19.59;100.00;100657.59;5000727;28;20185;-76
2022/06/24 02:35:44;;;;;;;3.57;2.57;;;;;;;19.44;100.00;100649.34;4999206;28;20471;-75
2022/06/24 02:38:09;;;;;;;3.50;3.20;;;;;;;19.31;100.00;100626.13;4999266;28;20724;-75
2022/06/24 02:40:47;;;;;;;2.57;2.37;;;;;;;19.48;100.00;100631.41;4997834;28;20252;-76
2022/06/24 02:43:32;;;;;;;5.57;2.77;;;;;;;19.55;100.00;100644.78;4998476;28;20308;-76
2022/06/24 02:46:03;;;;;;;2.20;2.10;;;;;;;19.53;100.00;100631.44;4999786;28;20482;-76
2022/06/24 02:48:30;;;;;;;4.10;3.00;;;;;;;19.46;100.00;100630.84;4998420;28;20798;-76
2022/06/24 02:50:58;;;;;;;2.47;2.27;;;;;;;19.47;100.00;100631.66;4997929;28;20590;-75
2022/06/24 02:53:24;;;;;;;2.67;2.40;;;;;;;19.39;100.00;100627.56;4998108;28;20852;-76
2022/06/24 02:55:52;;;;;;;2.47;2.27;;;;;;;19.39;100.00;100624.84;4998822;28;20512;-75
2022/06/24 02:58:17;;;;;;;2.60;2.40;;;;;;;19.41;100.00;100625.38;4998027;28;20475;-76
2022/06/24 03:00:44;;;;;;;2.70;2.50;;;;;;;19.52;100.00;100623.53;5001003;28;20446;-75
2022/06/24 03:03:14;;;;;;;2.70;2.50;;;;;;;19.29;100.00;100601.09;4997938;28;20554;-75
2022/06/24 03:05:39;;;;;;;2.80;2.60;;;;;;;19.38;100.00;100602.25;4997433;28;20522;-75
2022/06/24 03:08:06;;;;;;;2.60;2.40;;;;;;;19.47;100.00;100618.06;4999549;28;20447;-76
2022/06/24 03:10:33;;;;;;;2.33;2.13;;;;;;;19.44;100.00;100614.00;4998302;28;20225;-75
2022/06/24 03:12:58;;;;;;;3.90;2.50;;;;;;;19.46;100.00;100611.00;5000026;28;20444;-76
2022/06/24 03:15:24;;;;;;;2.53;2.33;;;;;;;19.43;100.00;100607.72;5000134;28;20481;-75
2022/06/24 03:17:49;;;;;;;3.43;2.40;;;;;;;19.48;100.00;100601.50;5002522;28;20197;-76
2022/06/24 03:20:15;;;;;;;5.50;2.60;;;;;;;18.89;100.00;100501.09;4994929;28;20263;-76
2022/06/24 03:22:41;;;;;;;2.17;1.70;;;;;;;19.39;100.00;100589.47;4998804;28;20181;-76
2022/06/24 03:25:07;;;;;;;2.23;2.13;;;;;;;19.43;100.00;100590.56;4997411;28;20447;-76
2022/06/24 03:27:34;;;;;;;2.67;2.47;;;;;;;19.37;100.00;100592.44;4997922;28;20608;-76
2022/06/24 03:29:59;;;;;;;3.00;2.73;;;;;;;19.17;100.00;100559.69;5000134;28;20472;-76
2022/06/24 03:32:25;;;;;;;2.90;2.57;;;;;;;19.41;100.00;100563.66;4999005;28;20518;-76
2022/06/24 03:34:50;;;;;;;3.20;2.47;;;;;;;19.29;100.00;100554.88;4998532;28;20185;-76
2022/06/24 03:37:16;;;;;;;2.97;2.67;;;;;;;19.38;100.00;100579.66;4995648;28;20220;-76
2022/06/24 03:39:41;;;;;;;2.73;2.47;;;;;;;19.22;100.00;100554.31;4997170;28;20174;-76
2022/06/24 03:42:07;;;;;;;2.30;2.07;;;;;;;19.39;100.00;100570.44;4994567;28;20561;-77
2022/06/24 03:44:32;;;;;;;2.90;2.30;;;;;;;19.38;100.00;100568.78;4995732;28;20235;-76
2022/06/24 03:46:58;;;;;;;2.00;1.90;;;;;;;19.39;100.00;100571.25;4996565;28;20270;-76
2022/06/24 03:49:23;;;;;;;4.67;2.23;;;;;;;19.39;100.00;100571.25;4995031;28;20201;-76
2022/06/24 03:51:48;;;;;;;3.23;2.60;;;;;;;19.20;100.00;100529.25;4996225;28;20662;-76
2022/06/24 03:54:14;;;;;;;2.53;2.33;;;;;;;19.45;100.00;100563.94;4994116;28;20214;-76
2022/06/24 03:56:40;;;;;;;3.77;2.50;;;;;;;19.32;100.00;100581.53;4997749;28;20703;-76
2022/06/24 03:59:05;;;;;;;2.87;2.47;;;;;;;19.11;100.00;100523.50;4995479;28;20229;-76
2022/06/24 04:01:31;;;;;;;3.23;2.80;;;;;;;19.36;100.00;100573.69;4998404;28;20197;-76
2022/06/24 04:03:56;;;;;;;2.70;2.20;;;;;;;19.42;100.00;100578.06;4999042;28;20566;-76
2022/06/24 04:06:22;;;;;;;2.30;2.10;;;;;;;19.50;100.00;100561.25;4992832;28;20292;-76
2022/06/24 04:08:48;;;;;;;2.50;2.30;;;;;;;19.42;100.00;100543.53;4995742;28;20252;-76
2022/06/24 04:11:16;;;;;;;2.63;2.40;;;;;;;19.31;100.00;100546.47;4991518;28;20209;-76
2022/06/24 04:13:43;;;;;;;3.47;2.37;;;;;;;19.53;100.00;100571.59;4994835;28;20181;-75
2022/06/24 04:16:09;;;;;;;2.77;2.30;;;;;;;19.52;100.00;100575.38;4995399;28;20505;-75
2022/06/24 04:18:34;;;;;;;2.50;2.30;;;;;;;19.67;100.00;100560.25;4997566;28;20502;-75
2022/06/24 04:21:00;;;;;;;2.30;2.13;;;;;;;19.70;100.00;100568.72;4997605;28;20440;-75
2022/06/24 04:23:26;;;;;;;2.33;2.13;;;;;;;19.72;100.00;100566.53;4995483;28;20562;-75
2022/06/24 04:25:52;;;;;;;2.33;2.13;;;;;;;19.66;100.00;100553.19;4998145;28;20231;-75
2022/06/24 04:28:18;;;;;;;2.60;2.40;;;;;;;19.58;100.00;100557.19;5000637;28;20463;-75
2022/06/24 04:30:43;;;;;;;2.23;2.03;;;;;;;19.61;100.00;100559.38;4997263;28;20466;-75
2022/06/24 04:33:09;;;;;;;5.00;2.60;;;;;;;19.61;100.00;100556.66;5001335;28;20192;-75
2022/06/24 04:35:35;;;;;;;3.57;2.37;;;;;;;19.57;100.00;100556.38;4998744;28;20190;-75
2022/06/24 04:38:00;;;;;;;2.93;2.63;;;;;;;19.56;100.00;100553.94;5002191;28;20177;-75
2022/06/24 04:40:26;;;;;;;2.70;2.50;;;;;;;19.52;100.00;100556.34;4999384;28;20189;-76
2022/06/24 04:42:52;;;;;;;2.57;2.37;;;;;;;19.49;100.00;100543.28;4997004;28;20669;-75
2022/06/24 04:45:18;;;;;;;2.70;2.50;;;;;;;19.57;100.00;100561.81;4996574;28;20186;-75
2022/06/24 04:47:44;;;;;;;6.53;2.57;;;;;;;19.52;100.00;100559.06;4995595;28;20766;-75
2022/06/24 04:50:09;;;;;;;2.87;2.57;;;;;;;19.51;100.00;100545.75;4995349;28;20485;-75
2022/06/24 04:52:36;;;;;;;2.47;2.27;;;;;;;19.43;100.00;100536.19;4990203;28;20185;-75
2022/06/24 04:55:03;;;;;;;2.80;2.10;;;;;;;19.55;100.00;100555.81;4998572;28;20180;-75
2022/06/24 04:57:29;;;;;;;2.73;2.53;;;;;;;19.51;100.00;100552.00;4994678;28;20460;-75
2022/06/24 04:59:54;;;;;;;3.23;2.90;;;;;;;19.47;100.00;100553.63;4993888;28;20464;-75
2022/06/24 05:02:19;;;;;;;2.63;2.43;;;;;;;19.39;100.00;100543.25;4992972;28;20778;-75
2022/06/24 05:04:45;;;;;;;3.23;2.80;;;;;;;19.53;100.00;100544.41;4994178;28;20189;-76
2022/06/24 05:07:11;;;;;;;2.50;2.30;;;;;;;19.58;100.00;100546.31;4996098;28;20308;-76
2022/06/24 05:09:36;;;;;;;5.10;2.40;;;;;;;19.72;100.00;100546.66;4994272;28;20201;-75
2022/06/24 05:12:02;;;;;;;2.50;2.30;;;;;;;19.47;100.00;100496.50;5004105;28;20201;-76
2022/06/24 05:14:29;;;;;;;2.70;2.50;;;;;;;19.60;100.00;100512.31;4989511;28;20638;-75
2022/06/24 05:16:55;;;;;;;2.47;2.30;;;;;;;19.74;100.00;100511.84;4991053;28;20499;-75
2022/06/24 05:19:21;;;;;;;2.63;2.30;;;;;;;19.96;100.00;100517.91;4993198;28;20450;-77
2022/06/24 05:21:47;;;;;;;2.53;2.33;;;;;;;20.01;100.00;100514.38;4997533;28;20936;-77
2022/06/24 05:24:12;;;;;;;2.10;1.90;;;;;;;20.06;100.00;100495.31;4994851;28;20227;-76
2022/06/24 05:26:44;;;;;;;2.50;2.17;;;;;;;19.83;100.00;100492.00;4999892;28;20206;-76
2022/06/24 05:29:10;;;;;;;2.80;2.60;;;;;;;20.08;100.00;100510.31;4998808;28;20658;-76
2022/06/24 05:31:35;;;;;;;2.30;1.93;;;;;;;20.13;100.00;100493.13;4999990;28;20460;-77
2022/06/24 05:34:01;;;;;;;4.50;2.10;;;;;;;20.23;100.00;100506.78;4996319;28;20185;-77
2022/06/24 05:36:27;;;;;;;2.37;2.17;;;;;;;20.29;100.00;100504.88;4996936;28;20223;-76
2022/06/24 05:38:52;;;;;;;2.33;2.13;;;;;;;20.29;100.00;100500.25;4996977;28;20443;-76
2022/06/24 05:41:18;;;;;;;2.37;2.17;;;;;;;20.30;100.00;100512.75;4993027;28;20181;-76
2022/06/24 05:43:44;;;;;;;4.10;2.73;;;;;;;20.35;100.00;100503.78;4999808;28;20239;-77
2022/06/24 05:46:10;;;;;;;2.60;2.40;;;;;;;20.45;100.00;100489.34;4997911;28;20260;-76
2022/06/24 05:48:35;;;;;;;2.67;2.20;;;;;;;19.81;100.00;100388.03;4994654;28;20452;-76
2022/06/24 05:51:12;;;;;;;4.60;2.60;;;;;;;20.42;100.00;100501.59;4995635;28;20236;-76
2022/06/24 05:56:23;;;;;;;2.93;2.23;;;;;;;20.48;100.00;100495.09;4995264;28;20901;-76
2022/06/24 05:58:49;;;;;;;10.30;2.70;;;;;;;20.50;100.00;100490.16;4990196;28;20558;-76
2022/06/24 06:01:15;;;;;;;2.57;2.37;;;;;;;20.54;100.00;100491.28;4999367;28;20583;-76
2022/06/24 06:03:41;;;;;;;2.70;2.20;;;;;;;20.62;100.00;100500.81;4993806;28;20562;-76
2022/06/24 06:06:07;;;;;;;2.57;2.00;;;;;;;20.60;100.00;100519.34;4988490;28;20534;-76
2022/06/24 06:08:34;;;;;;;3.10;2.80;;;;;;;20.58;100.00;100543.31;4987359;28;20373;-75
2022/06/24 06:10:59;;;;;;;3.50;2.33;;;;;;;20.54;100.00;100543.06;4989343;28;20833;-76
2022/06/24 06:13:25;;;;;;;2.80;2.30;;;;;;;20.49;100.00;100562.09;4995994;28;20451;-75
2022/06/24 06:15:50;;;;;;;3.60;2.90;;;;;;;20.46;100.00;100568.09;4988502;28;20274;-75
2022/06/24 06:18:16;;;;;;;5.13;2.90;;;;;;;20.54;100.00;100555.88;4996981;28;20288;-73
2022/06/24 06:20:41;;;;;;;4.97;2.97;;;;;;;19.95;100.00;100461.81;4992858;28;20240;-77
2022/06/24 06:23:07;;;;;;;9.47;2.90;;;;;;;20.70;100.00;100573.03;5003024;28;20193;-77
2022/06/24 06:25:33;;;;;;;6.20;3.40;;;;;;;20.72;100.00;100563.50;5002092;28;20319;-77
2022/06/24 06:27:59;;;;;;;5.47;2.73;;;;;;;20.71;100.00;100570.03;4993609;28;20197;-77
2022/06/24 06:30:25;;;;;;;6.83;3.80;;;;;;;20.66;100.00;100589.09;4994237;28;20496;-77
2022/06/24 06:32:51;;;;;;;7.43;2.70;;;;;;;20.65;100.00;100576.56;4994233;28;20910;-79
2022/06/24 06:35:17;;;;;;;7.53;2.97;;;;;;;20.27;100.00;100529.66;4991063;28;20185;-79
2022/06/24 06:37:42;;;;;;;6.50;3.00;;;;;;;20.27;100.00;100545.16;4994564;28;20467;-80
2022/06/24 06:40:08;;;;;;;11.37;3.60;;;;;;;19.92;100.00;100519.50;4993709;28;20259;-81
2022/06/24 06:42:34;;;;;;;5.40;3.23;;;;;;;20.01;100.00;100558.72;4988754;28;20192;-80
2022/06/24 06:45:00;;;;;;;7.50;3.83;;;;;;;19.47;100.00;100517.44;4991942;28;20566;-79
2022/06/24 06:47:26;;;;;;;4.67;4.20;;;;;;;19.43;100.00;100536.19;4987577;28;20221;-79
2022/06/24 06:49:51;;;;;;;5.67;3.80;;;;;;;19.16;100.00;100473.78;4989640;28;20473;-79
2022/06/24 06:52:17;;;;;;;4.47;3.90;;;;;;;19.26;100.00;100501.00;4991867;28;21961;-75
2022/06/24 06:54:42;;;;;;;9.27;4.00;;;;;;;19.49;100.00;100526.97;4996007;28;20231;-75
2022/06/24 06:57:11;;;;;;;9.27;4.30;;;;;;;19.27;100.00;100524.44;4997619;28;20674;-76
2022/06/24 06:59:36;;;;;;;5.10;4.60;;;;;;;17.81;100.00;100296.69;4990600;28;20188;-75
2022/06/24 07:02:02;;;;;;;5.70;4.67;;;;;;;18.86;100.00;100442.66;4995690;28;20453;-75
2022/06/24 07:04:27;;;;;;;8.07;5.20;;;;;;;19.07;100.00;100491.69;4997577;28;20181;-76
2022/06/24 07:06:53;;;;;;;5.47;4.53;;;;;;;18.89;100.00;100431.28;4993750;28;20603;-77
2022/06/24 07:09:19;;;;;;;10.03;4.57;;;;;;;18.73;100.00;100415.94;4993186;28;20212;-76
2022/06/24 07:11:44;;;;;;;8.60;4.80;;;;;;;19.28;100.00;100530.69;4993141;23;20238;-70
2022/06/24 07:14:10;;;;;;;9.13;5.03;;;;;;;19.30;100.00;100517.66;4931551;28;20443;-71
2022/06/24 07:16:36;;;;;;;5.80;4.20;;;;;;;19.38;100.00;100533.44;4928596;28;21186;-70
2022/06/24 07:19:02;;;;;;;7.47;5.10;;;;;;;19.06;100.00;100479.97;4927382;28;20275;-70
2022/06/24 07:21:28;;;;;;;7.97;5.67;;;;;;;18.76;100.00;100445.31;4945422;28;20473;-71
2022/06/24 07:23:53;;;;;;;6.73;4.60;;;;;;;19.42;100.00;100507.34;4947310;28;20883;-71
2022/06/24 07:26:18;;;;;;;5.40;4.53;;;;;;;19.59;100.00;100550.69;4936594;28;20191;-71
2022/06/24 07:28:44;;;;;;;5.10;4.60;;;;;;;18.94;100.00;100463.88;4947198;28;20278;-72
2022/06/24 07:31:17;;;;;;;9.97;5.90;;;;;;;19.03;100.00;100469.63;4947618;28;20305;-72
2022/06/24 07:33:42;;;;;;;4.97;4.53;;;;;;;19.29;100.00;100514.09;4948702;28;20220;-71
2022/06/24 07:36:08;;;;;;;7.50;5.63;;;;;;;19.26;100.00;100555.41;4944805;28;20987;-71
2022/06/24 07:38:33;;;;;;;10.40;5.93;;;;;;;19.45;100.00;100579.44;4952381;28;20195;-71
2022/06/24 07:40:59;;;;;;;7.03;6.10;;;;;;;18.94;100.00;100515.53;4947045;28;20186;-71
2022/06/24 07:43:24;;;;;;;7.67;6.80;;;;;;;19.40;100.00;100616.41;4953292;28;20566;-72
2022/06/24 07:45:54;;;;;;;10.30;7.33;;;;;;;19.42;100.00;100627.84;4954677;28;20572;-72
2022/06/24 07:48:19;;;;;;;6.90;5.37;;;;;;;19.42;100.00;100591.66;4949156;28;20552;-71
2022/06/24 07:50:47;;;;;;;7.00;6.30;;;;;;;19.39;100.00;100598.44;4949442;28;20488;-72
2022/06/24 07:53:13;;;;;;;7.63;6.90;;;;;;;19.12;100.00;100576.81;4949328;28;20230;-72
2022/06/24 07:58:22;;;;;;;7.03;6.20;;;;;;;19.52;100.00;100575.38;4944247;28;20197;-72
2022/06/24 08:00:48;;;;;;;6.83;6.17;;;;;;;19.57;100.00;100561.00;4948971;28;20445;-70
2022/06/24 08:03:14;;;;;;;6.80;6.20;;;;;;;19.41;100.00;100530.19;4947427;28;20260;-71
2022/06/24 08:05:40;;;;;;;5.60;5.00;;;;;;;19.91;100.00;100569.59;4948578;28;20229;-71
2022/06/24 08:08:05;;;;;;;6.73;5.80;;;;;;;19.88;100.00;100555.72;4950425;28;20450;-71
2022/06/24 08:10:31;;;;;;;9.07;6.27;;;;;;;19.71;100.00;100513.22;4945814;28;20198;-70
2022/06/24 08:12:56;;;;;;;7.70;6.90;;;;;;;20.00;100.00;100543.50;4943901;28;20221;-69
2022/06/24 08:15:22;;;;;;;7.53;5.07;;;;;;;20.12;100.00;100535.06;4951198;28;20697;-70
2022/06/24 08:17:48;;;;;;;6.00;4.90;;;;;;;19.68;100.00;100455.78;4950264;28;20190;-72
2022/06/24 08:20:14;;;;;;;7.13;6.43;;;;;;;19.86;100.00;100504.25;4947467;28;20789;-71
2022/06/24 08:22:39;;;;;;;6.60;5.90;;;;;;;20.09;100.00;100552.75;4952718;28;20470;-72
2022/06/24 08:25:05;;;;;;;9.57;7.10;;;;;;;20.04;100.00;100536.41;4952801;28;20446;-73
2022/06/24 08:27:30;;;;;;;7.00;6.30;;;;;;;20.45;100.00;100573.78;4952478;28;20194;-71
2022/06/24 08:29:56;;;;;;;6.80;6.20;;;;;;;20.19;100.00;100523.91;4953542;28;20267;-72
2022/06/24 08:32:21;;;;;;;6.73;6.00;;;;;;;20.32;100.00;100561.53;4953343;28;20215;-71
2022/06/24 08:34:46;;;;;;;7.10;6.03;;;;;;;20.38;100.00;100568.63;4951417;28;20183;-72
2022/06/24 08:37:12;;;;;;;7.30;5.60;;;;;;;19.95;100.00;100480.88;4955513;28;20670;-71
2022/06/24 08:39:37;;;;;;;5.80;5.20;;;;;;;20.13;100.00;100493.13;4952682;28;20639;-71
2022/06/24 08:42:04;;;;;;;7.43;6.73;;;;;;;20.28;100.00;100534.03;4951848;28;20218;-71
2022/06/24 08:44:29;;;;;;;7.07;6.00;;;;;;;19.87;100.00;100446.00;4949173;28;20203;-71
2022/06/24 08:46:55;;;;;;;5.80;5.27;;;;;;;20.65;100.00;100578.47;4953458;28;20446;-71
2022/06/24 08:49:21;;;;;;;8.43;4.80;;;;;;;20.80;100.00;100573.03;4953600;28;20634;-71
2022/06/24 08:51:48;;;;;;;5.60;5.10;;;;;;;20.61;100.00;100534.59;4953577;28;20229;-69
2022/06/24 08:54:17;;;;;;;5.23;4.23;;;;;;;20.69;100.00;100509.53;4950333;28;20221;-69
2022/06/24 08:56:42;;;;;;;9.63;6.80;;;;;;;19.91;100.00;100447.13;4950193;28;20456;-69
2022/06/24 08:59:08;;;;;;;5.57;4.20;;;;;;;20.85;100.00;100551.19;4954363;28;20446;-70
2022/06/24 09:01:43;;;;;;;4.67;4.10;;;;;;;21.01;100.00;100535.66;4952883;28;20210;-70
2022/06/24 09:04:10;;;;;;;5.50;4.40;;;;;;;20.97;100.00;100510.84;4952536;28;20190;-70
2022/06/24 09:06:40;;;;;;;5.83;4.63;;;;;;;21.33;100.00;100542.66;4953135;28;20468;-71
2022/06/24 09:09:06;;;;;;;4.30;3.80;;;;;;;21.46;100.00;100530.38;4954429;28;20753;-69
2022/06/24 09:11:42;;;;;;;5.27;4.40;;;;;;;21.28;100.00;100535.31;4951477;28;20478;-71
2022/06/24 09:14:08;;;;;;;6.30;4.93;;;;;;;20.80;100.00;100479.53;4947978;28;20540;-71
2022/06/24 09:16:37;;;;;;;4.87;3.73;;;;;;;21.08;100.00;100521.72;4950858;28;20896;-71
2022/06/24 09:19:05;;;;;;;4.80;3.70;;;;;;;21.12;100.00;100539.19;4949670;28;20921;-69
2022/06/24 09:21:39;;;;;;;4.60;3.37;;;;;;;20.78;100.00;100488.00;4951565;28;20465;-69
2022/06/24 09:24:05;;;;;;;6.63;4.77;;;;;;;21.07;100.00;100556.34;4944364;28;20426;-70
2022/06/24 09:26:34;;;;;;;4.33;3.93;;;;;;;20.94;100.00;100556.91;4950822;28;20445;-70
2022/06/24 09:29:04;;;;;;;5.27;3.37;;;;;;;20.91;100.00;100555.56;4952180;28;20206;-70
2022/06/24 09:31:31;;;;;;;5.63;4.30;;;;;;;20.70;100.00;100551.22;4953914;28;20471;-70
2022/06/24 09:34:08;;;;;;;6.10;4.47;;;;;;;20.79;100.00;100603.28;4952973;28;20453;-71
2022/06/24 09:36:35;;;;;;;5.50;3.87;;;;;;;20.70;100.00;100617.44;4951789;28;20529;-70
2022/06/24 09:39:05;;;;;;;5.30;3.83;;;;;;;20.45;100.00;100590.13;4946410;28;20454;-70
2022/06/24 09:41:53;;;;;;;3.73;2.83;;;;;;;20.57;100.00;100633.50;4950514;28;20449;-70
2022/06/24 09:44:19;;;;;;;3.80;3.37;;;;;;;20.35;100.00;100650.06;4950740;28;21168;-70
2022/06/24 09:46:44;;;;;;;3.07;2.77;;;;;;;20.60;100.00;100674.66;4955040;28;20445;-70
2022/06/24 09:49:15;;;;;;;2.90;2.60;;;;;;;20.62;100.00;100668.94;4954636;28;20450;-70
2022/06/24 09:51:43;;;;;;;4.97;2.60;;;;;;;20.60;100.00;100679.28;4950922;28;20218;-70
2022/06/24 09:54:09;;;;;;;3.17;2.60;;;;;;;20.60;100.00;100680.13;4956113;28;20783;-71
2022/06/24 09:56:37;;;;;;;5.40;3.17;;;;;;;20.37;100.00;100678.66;4955162;28;20444;-71
2022/06/24 10:01:48;;;;;;;5.40;2.50;;;;;;;20.30;100.00;100678.09;4952219;28;20456;-71
2022/06/24 10:04:20;;;;;;;7.73;2.67;;;;;;;20.38;100.00;100679.47;4948783;28;20506;-71
2022/06/24 10:06:48;;;;;;;2.97;1.97;;;;;;;19.57;100.00;100553.66;4952909;28;20512;-71
2022/06/24 10:09:14;;;;;;;3.90;1.90;;;;;;;19.91;100.00;100610.44;4946405;28;20576;-71
2022/06/24 10:11:47;;;;;;;2.63;2.30;;;;;;;19.79;100.00;100593.53;4943623;28;20478;-71
2022/06/24 10:14:12;;;;;;;3.20;2.10;;;;;;;20.37;100.00;100678.66;4947490;28;20447;-71
2022/06/24 10:16:40;;;;;;;2.00;1.67;;;;;;;20.49;100.00;100670.25;4953420;28;20516;-71
2022/06/24 10:19:07;;;;;;;4.30;1.67;;;;;;;20.48;100.00;100657.69;4955951;28;20680;-71
2022/06/24 10:21:32;;;;;;;3.27;1.97;;;;;;;20.49;100.00;100651.19;4956536;28;20507;-71
2022/06/24 10:23:58;;;;;;;3.30;2.20;;;;;;;20.02;100.00;100587.59;4960172;28;20430;-70
2022/06/24 10:26:31;;;;;;;4.10;1.70;;;;;;;20.53;100.00;100661.28;4958913;28;20478;-70
2022/06/24 10:29:00;;;;;;;2.57;1.73;;;;;;;20.54;100.00;100662.13;4957280;28;20261;-70
2022/06/24 10:31:56;;;;;;;1.83;1.40;;;;;;;20.57;100.00;100663.47;4956926;28;20473;-70
2022/06/24 10:34:22;;;;;;;2.93;2.00;;;;;;;20.66;100.00;100664.59;4956122;28;20495;-70
2022/06/24 10:36:51;;;;;;;4.93;1.70;;;;;;;20.46;100.00;100610.84;4956053;28;20880;-71
2022/06/24 10:39:21;;;;;;;2.40;1.60;;;;;;;20.74;100.00;100667.59;4956455;28;20190;-70
2022/06/24 10:41:58;;;;;;;1.83;1.40;;;;;;;20.26;100.00;100584.41;4956028;28;20465;-70
2022/06/24 10:44:26;;;;;;;1.90;1.60;;;;;;;20.48;100.00;100620.41;4952320;28;20446;-70
2022/06/24 10:47:19;;;;;;;2.00;1.80;;;;;;;20.30;100.00;100591.75;4955779;28;20446;-70
2022/06/24 10:49:54;;;;;;;3.07;1.90;;;;;;;20.73;100.00;100671.41;4955196;28;20822;-70
2022/06/24 10:52:39;;;;;;;2.73;1.90;;;;;;;20.14;100.00;100576.47;4955369;28;21924;-70
2022/06/24 10:57:43;;;;;;;1.40;1.23;;;;;;;20.69;100.00;100683.13;4955643;28;20439;-70
2022/06/24 11:00:11;;;;;;;2.20;1.60;;;;;;;20.75;100.00;100684.78;4961176;28;20491;-70
2022/06/24 11:02:36;;;;;;;3.30;1.80;;;;;;;20.67;100.00;100688.84;4957661;28;20469;-71
2022/06/24 11:05:03;;;;;;;1.87;1.27;;;;;;;20.76;100.00;100695.38;4961824;28;20443;-70
2022/06/24 11:07:29;;;;;;;2.73;1.27;;;;;;;20.67;100.00;100668.94;4959414;28;20191;-70
2022/06/24 11:09:54;;;;;;;2.60;1.37;;;;;;;20.61;100.00;100668.13;4956688;28;20535;-70
2022/06/24 11:12:30;;;;;;;6.53;2.07;;;;;;;20.89;100.00;100685.06;4954436;28;20222;-70
2022/06/24 11:14:56;;;;;;;2.40;1.70;;;;;;;20.61;100.00;100640.88;4954812;28;20190;-71
2022/06/24 11:17:26;;;;;;;2.97;1.93;;;;;;;20.82;100.00;100684.50;4954364;28;20441;-71
2022/06/24 11:19:52;;;;;;;2.90;1.43;;;;;;;20.68;100.00;100681.47;4955164;28;20493;-70
2022/06/24 11:22:18;;;;;;;2.10;1.20;;;;;;;20.48;100.00;100650.38;4954860;28;20466;-70
2022/06/24 11:24:49;;;;;;;1.90;1.40;;;;;;;20.65;100.00;100669.19;4954151;28;20447;-71
2022/06/24 11:27:14;;;;;;;2.33;1.63;;;;;;;20.71;100.00;100670.03;4947222;28;20190;-71
2022/06/24 11:29:58;;;;;;;1.90;1.63;;;;;;;20.49;100.00;100659.34;4952761;28;20519;-71